createdAt,value
2023-03-20T00:02:01.416Z,87.87
2023-03-20T00:04:30.057Z,88.34
2023-03-20T00:06:56.980Z,88.95
2023-03-20T00:09:23.856Z,88.90
2023-03-20T00:11:53.648Z,89.00
2023-03-20T00:14:23.841Z,88.52
2023-03-20T00:16:51.545Z,87.21
2023-03-20T00:19:21.165Z,87.46
2023-03-20T00:21:51.794Z,87.18
2023-03-20T00:24:19.081Z,86.49
2023-03-20T00:26:48.861Z,86.22
2023-03-20T00:29:23.050Z,87.42
2023-03-20T00:31:50.402Z,87.72
2023-03-20T00:34:20.692Z,87.24
2023-03-20T00:36:47.992Z,86.85
2023-03-20T00:39:16.391Z,87.34
2023-03-20T00:41:51.460Z,86.86
2023-03-20T00:44:26.525Z,86.42
2023-03-20T00:46:57.983Z,87.35
2023-03-20T00:49:28.638Z,87.23
2023-03-20T00:51:55.765Z,86.82
2023-03-20T00:54:25.813Z,86.59
2023-03-20T00:57:13.411Z,86.05
2023-03-20T00:59:51.161Z,86.24
2023-03-20T01:02:26.949Z,85.31
2023-03-20T01:04:55.310Z,84.35
2023-03-20T01:07:22.852Z,84.83
2023-03-20T01:09:51.184Z,84.86
2023-03-20T01:12:19.601Z,85.17
2023-03-20T01:14:53.746Z,84.68
2023-03-20T01:17:23.578Z,84.42
2023-03-20T01:19:51.292Z,84.32
2023-03-20T01:22:18.996Z,84.88
2023-03-20T01:24:46.720Z,85.72
2023-03-20T01:27:18.121Z,85.31
2023-03-20T01:29:46.266Z,84.68
2023-03-20T01:32:16.370Z,85.60
2023-03-20T01:34:46.565Z,84.93
2023-03-20T01:37:22.428Z,85.18
2023-03-20T01:39:50.534Z,83.85
2023-03-20T01:42:19.520Z,84.85
2023-03-20T01:44:46.834Z,83.26
2023-03-20T01:47:17.331Z,84.03
2023-03-20T01:50:20.250Z,83.83
2023-03-20T01:52:56.013Z,84.34
2023-03-20T01:55:24.527Z,84.35
2023-03-20T01:58:06.594Z,84.79
2023-03-20T02:00:35.560Z,85.44
2023-03-20T02:03:07.365Z,84.95
2023-03-20T02:05:59.152Z,85.08
2023-03-20T02:08:36.566Z,84.76
2023-03-20T02:11:06.023Z,85.12
2023-03-20T02:13:35.804Z,84.51
2023-03-20T02:16:06.479Z,84.50
2023-03-20T02:18:54.944Z,83.66
2023-03-20T02:22:29.279Z,83.86
2023-03-20T02:25:37.836Z,85.20
2023-03-20T02:28:45.493Z,85.67
2023-03-20T02:31:53.031Z,85.69
2023-03-20T02:35:03.472Z,85.54
2023-03-20T02:38:05.794Z,86.37
2023-03-20T02:40:46.905Z,86.66
2023-03-20T02:43:26.183Z,87.07
2023-03-20T02:46:06.351Z,86.58
2023-03-20T02:48:48.862Z,87.21
2023-03-20T02:51:33.208Z,87.58
2023-03-20T02:54:10.078Z,87.68
2023-03-20T02:56:51.946Z,88.24
2023-03-20T02:59:32.148Z,88.07
2023-03-20T03:02:07.659Z,88.30
2023-03-20T03:04:41.370Z,88.67
2023-03-20T03:07:14.118Z,88.25
2023-03-20T03:09:51.142Z,88.57
2023-03-20T03:12:25.492Z,88.02
2023-03-20T03:14:57.098Z,88.37
2023-03-20T03:17:31.061Z,87.68
2023-03-20T03:20:05.164Z,87.78
2023-03-20T03:22:34.014Z,86.89
2023-03-20T03:25:02.326Z,87.25
2023-03-20T03:27:40.847Z,86.91
2023-03-20T03:30:15.965Z,86.76
2023-03-20T03:32:58.939Z,86.46
2023-03-20T03:35:27.136Z,85.79
2023-03-20T03:38:03.263Z,86.00
2023-03-20T03:40:41.450Z,86.51
2023-03-20T03:43:22.140Z,86.48
2023-03-20T03:45:54.926Z,87.12
2023-03-20T03:48:30.970Z,87.45
2023-03-20T03:51:05.625Z,87.94
2023-03-20T03:53:41.473Z,87.77
2023-03-20T03:56:16.092Z,87.71
2023-03-20T03:58:48.980Z,87.43
2023-03-20T04:01:20.291Z,87.63
2023-03-20T04:03:53.674Z,87.61
2023-03-20T04:07:01.031Z,88.05
2023-03-20T04:09:37.087Z,87.37
2023-03-20T04:12:18.307Z,87.44
2023-03-20T04:14:45.487Z,87.68
2023-03-20T04:17:12.879Z,87.44
2023-03-20T04:19:39.723Z,87.38
2023-03-20T04:22:06.657Z,88.04
2023-03-20T04:24:33.533Z,87.90
2023-03-20T04:27:00.703Z,87.89
2023-03-20T04:29:29.388Z,88.38
2023-03-20T04:32:06.673Z,88.72
2023-03-20T04:34:57.994Z,88.78
2023-03-20T04:37:29.267Z,88.75
2023-03-20T04:40:02.155Z,88.35
2023-03-20T04:42:29.885Z,88.39
2023-03-20T04:45:03.818Z,88.22
2023-03-20T04:47:31.123Z,88.60
2023-03-20T04:49:58.680Z,88.32
2023-03-20T04:52:26.229Z,88.66
2023-03-20T04:54:53.040Z,88.53
2023-03-20T04:57:19.988Z,88.46
2023-03-20T04:59:47.189Z,88.48
2023-03-20T05:02:15.513Z,88.70
2023-03-20T05:04:42.763Z,88.43
2023-03-20T05:07:10.606Z,87.83
2023-03-20T05:09:48.106Z,86.98
2023-03-20T05:12:15.162Z,87.53
2023-03-20T05:15:02.728Z,87.33
2023-03-20T05:17:51.721Z,86.70
2023-03-20T05:20:37.684Z,86.13
2023-03-20T05:23:09.440Z,86.72
2023-03-20T05:26:14.843Z,86.30
2023-03-20T05:29:00.549Z,87.11
2023-03-20T05:31:46.610Z,87.04
2023-03-20T05:34:37.304Z,86.93
2023-03-20T05:37:22.905Z,86.56
2023-03-20T05:40:07.795Z,87.02
2023-03-20T05:42:44.491Z,87.76
2023-03-20T05:45:27.462Z,88.84
2023-03-20T05:48:17.521Z,88.16
2023-03-20T05:50:55.866Z,88.20
2023-03-20T05:53:49.240Z,88.14
2023-03-20T05:56:48.629Z,87.16
2023-03-20T05:59:32.331Z,87.62
2023-03-20T06:02:25.211Z,87.63
2023-03-20T06:05:00.926Z,87.15
2023-03-20T06:07:34.041Z,87.61
2023-03-20T06:10:07.558Z,86.44
2023-03-20T06:12:34.721Z,85.46
2023-03-20T06:15:01.941Z,84.58
2023-03-20T06:17:32.482Z,86.16
2023-03-20T06:20:03.180Z,86.24
2023-03-20T06:22:30.942Z,86.14
2023-03-20T06:24:59.323Z,86.47
2023-03-20T06:27:34.732Z,86.20
2023-03-20T06:30:03.222Z,87.01
2023-03-20T06:32:33.369Z,86.96
2023-03-20T06:35:03.485Z,86.95
2023-03-20T06:37:31.062Z,86.84
2023-03-20T06:40:08.334Z,85.90
2023-03-20T06:42:36.343Z,86.04
2023-03-20T06:45:05.966Z,86.36
2023-03-20T06:47:54.794Z,86.37
2023-03-20T06:50:22.236Z,86.32
2023-03-20T06:52:49.372Z,85.94
2023-03-20T06:55:42.328Z,84.75
2023-03-20T06:58:10.470Z,84.99
2023-03-20T07:00:41.022Z,83.98
2023-03-20T07:03:09.246Z,84.37
2023-03-20T07:05:37.323Z,83.32
2023-03-20T07:08:08.700Z,82.75
2023-03-20T07:10:35.984Z,82.69
2023-03-20T07:13:04.268Z,81.80
2023-03-20T07:15:34.977Z,81.86
2023-03-20T07:18:03.655Z,82.17
2023-03-20T07:20:44.898Z,81.33
2023-03-20T07:23:37.300Z,81.82
2023-03-20T07:26:25.425Z,83.42
2023-03-20T07:28:55.745Z,82.99
2023-03-20T07:31:29.972Z,82.15
2023-03-20T07:34:07.663Z,82.60
2023-03-20T07:36:35.531Z,82.60
2023-03-20T07:39:04.660Z,83.48
2023-03-20T07:41:32.790Z,84.18
2023-03-20T07:44:08.685Z,82.61
2023-03-20T07:47:02.270Z,82.59
2023-03-20T07:49:30.115Z,83.65
2023-03-20T07:51:56.921Z,82.39
2023-03-20T07:54:24.599Z,82.43
2023-03-20T07:56:51.769Z,82.98
2023-03-20T07:59:20.053Z,80.98
2023-03-20T08:01:46.941Z,81.94
2023-03-20T08:04:21.198Z,80.96
2023-03-20T08:06:59.891Z,79.80
2023-03-20T08:09:27.351Z,78.76
2023-03-20T08:11:55.512Z,78.34
2023-03-20T08:14:27.316Z,77.70
2023-03-20T08:17:12.383Z,77.63
2023-03-20T08:19:41.429Z,76.29
2023-03-20T08:22:08.295Z,75.43
2023-03-20T08:24:35.548Z,75.90
2023-03-20T08:27:05.601Z,75.04
2023-03-20T08:29:35.312Z,74.92
2023-03-20T08:32:02.150Z,74.79
2023-03-20T08:34:28.959Z,74.19
2023-03-20T08:36:59.179Z,74.43
2023-03-20T08:39:26.533Z,74.70
2023-03-20T08:41:54.492Z,74.37
2023-03-20T08:44:21.685Z,73.73
2023-03-20T08:46:50.312Z,73.05
2023-03-20T08:49:17.085Z,72.71
2023-03-20T08:51:43.958Z,72.01
2023-03-20T08:54:10.836Z,72.30
2023-03-20T08:56:37.843Z,71.98
2023-03-20T08:59:05.506Z,71.97
2023-03-20T09:01:48.340Z,71.82
2023-03-20T09:04:18.570Z,71.99
2023-03-20T09:06:45.431Z,71.29
2023-03-20T09:09:12.288Z,70.98
2023-03-20T09:11:39.104Z,71.09
2023-03-20T09:14:06.362Z,70.82
2023-03-20T09:16:33.610Z,70.94
2023-03-20T09:19:00.761Z,70.58
2023-03-20T09:21:29.310Z,70.80
2023-03-20T09:23:56.190Z,70.51
2023-03-20T09:26:23.499Z,70.23
2023-03-20T09:28:50.389Z,70.75
2023-03-20T09:31:17.337Z,70.17
2023-03-20T09:33:44.247Z,70.57
2023-03-20T09:36:11.613Z,70.49
2023-03-20T09:38:40.075Z,70.30
2023-03-20T09:41:16.097Z,70.58
2023-03-20T09:44:12.607Z,70.76
2023-03-20T09:47:18.847Z,70.51
2023-03-20T09:50:05.611Z,70.50
2023-03-20T09:52:37.867Z,69.41
2023-03-20T09:55:14.520Z,70.11
2023-03-20T09:57:45.564Z,69.84
2023-03-20T10:00:17.820Z,69.23
2023-03-20T10:02:52.325Z,69.05
2023-03-20T10:05:24.901Z,68.10
2023-03-20T10:07:55.556Z,68.74
2023-03-20T10:10:38.063Z,68.15
2023-03-20T10:13:35.472Z,67.77
2023-03-20T10:16:19.483Z,67.01
2023-03-20T10:18:55.275Z,67.01
2023-03-20T10:21:34.802Z,66.50
2023-03-20T10:24:07.046Z,66.07
2023-03-20T10:26:37.483Z,66.10
2023-03-20T10:29:19.893Z,67.21
2023-03-20T10:32:12.207Z,67.81
2023-03-20T10:35:00.741Z,67.34
2023-03-20T10:37:44.614Z,66.15
2023-03-20T10:40:28.698Z,63.90
2023-03-20T10:43:02.639Z,62.60
2023-03-20T10:45:41.874Z,60.66
2023-03-20T10:48:20.075Z,58.28
2023-03-20T10:50:53.005Z,58.18
2023-03-20T10:53:30.300Z,58.93
2023-03-20T10:56:03.002Z,57.39
2023-03-20T10:58:37.095Z,57.15
2023-03-20T11:01:05.532Z,56.81
2023-03-20T11:03:35.152Z,57.96
2023-03-20T11:06:11.181Z,58.77
2023-03-20T11:08:42.075Z,57.81
2023-03-20T11:11:10.232Z,57.51
2023-03-20T11:13:42.533Z,56.26
2023-03-20T11:16:22.706Z,57.07
2023-03-20T11:18:51.752Z,55.63
2023-03-20T11:21:23.549Z,52.70
2023-03-20T11:23:51.315Z,51.73
2023-03-20T11:26:27.857Z,48.53
2023-03-20T11:28:59.570Z,46.38
2023-03-20T11:31:34.655Z,44.46
2023-03-20T11:34:21.593Z,41.73
2023-03-20T11:37:09.403Z,40.92
2023-03-20T11:39:37.017Z,41.08
2023-03-20T11:42:22.700Z,40.81
2023-03-20T11:45:04.989Z,44.13
2023-03-20T11:47:35.654Z,44.66
2023-03-20T11:50:06.645Z,46.78
2023-03-20T11:52:37.839Z,48.13
2023-03-20T11:55:23.970Z,49.54
2023-03-20T11:57:58.235Z,49.14
2023-03-20T12:00:36.462Z,48.60
2023-03-20T12:03:13.104Z,48.93
2023-03-20T12:05:40.075Z,47.47
2023-03-20T12:08:16.516Z,45.06
2023-03-20T12:10:53.202Z,43.95
2023-03-20T12:13:28.712Z,44.29
2023-03-20T12:16:03.561Z,45.14
2023-03-20T12:18:36.131Z,44.05
2023-03-20T12:21:12.541Z,44.13
2023-03-20T12:23:45.668Z,44.40
2023-03-20T12:26:15.601Z,45.20
2023-03-20T12:28:54.088Z,44.61
2023-03-20T12:31:30.093Z,45.25
2023-03-20T12:34:04.003Z,44.87
2023-03-20T12:36:35.609Z,46.08
2023-03-20T12:39:10.476Z,46.01
2023-03-20T12:41:53.847Z,45.69
2023-03-20T12:44:37.056Z,46.82
2023-03-20T12:47:29.001Z,45.80
2023-03-20T12:50:10.235Z,46.08
2023-03-20T12:52:52.815Z,46.15
2023-03-20T12:55:42.976Z,46.29
2023-03-20T12:58:28.240Z,45.54
2023-03-20T13:01:03.915Z,45.70
2023-03-20T13:03:55.226Z,46.30
2023-03-20T13:06:40.513Z,46.04
2023-03-20T13:09:44.684Z,46.68
2023-03-20T13:12:34.191Z,46.39
2023-03-20T13:15:21.651Z,46.41
2023-03-20T13:18:00.218Z,47.59
2023-03-20T13:20:34.395Z,46.93
2023-03-20T13:23:14.931Z,47.88
2023-03-20T13:26:03.284Z,47.29
2023-03-20T13:28:41.589Z,47.71
2023-03-20T13:31:29.284Z,48.38
2023-03-20T13:34:13.166Z,48.74
2023-03-20T13:37:06.632Z,48.88
2023-03-20T13:39:48.139Z,49.80
2023-03-20T13:42:22.834Z,49.57
2023-03-20T13:44:54.313Z,48.78
2023-03-20T13:47:28.211Z,48.42
2023-03-20T13:50:25.179Z,48.37
2023-03-20T13:53:03.157Z,49.10
2023-03-20T13:55:41.294Z,48.53
2023-03-20T13:58:45.880Z,49.15
2023-03-20T14:01:24.222Z,49.03
2023-03-20T14:03:54.305Z,49.08
2023-03-20T14:06:47.454Z,49.38
2023-03-20T14:09:32.352Z,49.39
2023-03-20T14:12:05.042Z,49.87
2023-03-20T14:14:41.693Z,49.66
2023-03-20T14:17:17.806Z,50.34
2023-03-20T14:19:46.507Z,49.94
2023-03-20T14:22:20.375Z,50.72
2023-03-20T14:24:59.654Z,51.00
2023-03-20T14:27:43.217Z,50.37
2023-03-20T14:30:42.774Z,49.60
2023-03-20T14:33:30.034Z,50.26
2023-03-20T14:36:20.622Z,51.25
2023-03-20T14:38:59.642Z,51.27
2023-03-20T14:41:41.454Z,50.06
2023-03-20T14:44:27.353Z,50.55
2023-03-20T14:47:06.613Z,50.64
2023-03-20T14:49:54.018Z,50.75
2023-03-20T14:52:42.365Z,49.96
2023-03-20T14:55:33.787Z,50.46
2023-03-20T14:58:52.166Z,49.88
2023-03-20T15:01:33.808Z,50.80
2023-03-20T15:04:06.531Z,50.42
2023-03-20T15:06:42.078Z,50.19
2023-03-20T15:09:12.669Z,50.38
2023-03-20T15:11:43.416Z,50.20
2023-03-20T15:14:22.584Z,50.94
2023-03-20T15:16:58.290Z,50.18
2023-03-20T15:19:25.152Z,50.54
2023-03-20T15:21:55.128Z,50.29
2023-03-20T15:24:24.454Z,51.13
2023-03-20T15:26:55.853Z,51.10
2023-03-20T15:29:24.444Z,51.04
2023-03-20T15:32:12.488Z,50.73
2023-03-20T15:34:42.245Z,51.15
2023-03-20T15:37:15.655Z,51.81
2023-03-20T15:39:46.464Z,51.79
2023-03-20T15:42:17.446Z,51.62
2023-03-20T15:44:49.967Z,52.50
2023-03-20T15:47:19.865Z,51.94
2023-03-20T15:49:52.334Z,52.24
2023-03-20T15:52:30.812Z,52.44
2023-03-20T15:55:00.640Z,51.70
2023-03-20T15:57:35.663Z,52.20
2023-03-20T16:00:14.980Z,51.70
2023-03-20T16:02:44.080Z,51.92
2023-03-20T16:05:15.355Z,52.19
2023-03-20T16:07:43.067Z,52.73
2023-03-20T16:10:19.816Z,52.00
2023-03-20T16:12:50.194Z,52.27
2023-03-20T16:15:20.635Z,52.78
2023-03-20T16:17:58.911Z,52.10
2023-03-20T16:20:33.591Z,51.85
2023-03-20T16:23:05.929Z,51.98
2023-03-20T16:25:35.309Z,52.73
2023-03-20T16:28:04.846Z,52.33
2023-03-20T16:30:35.463Z,52.98
2023-03-20T16:33:09.467Z,52.87
2023-03-20T16:35:40.340Z,52.88
2023-03-20T16:38:24.126Z,53.13
2023-03-20T16:40:55.313Z,53.72
2023-03-20T16:43:30.126Z,53.79
2023-03-20T16:46:05.581Z,54.12
2023-03-20T16:48:34.264Z,54.32
2023-03-20T16:51:11.093Z,54.14
2023-03-20T16:53:42.302Z,54.45
2023-03-20T16:56:14.245Z,55.12
2023-03-20T16:58:41.268Z,54.92
2023-03-20T17:01:18.289Z,55.42
2023-03-20T17:03:51.352Z,55.30
2023-03-20T17:06:46.834Z,56.38
2023-03-20T17:09:24.894Z,56.16
2023-03-20T17:12:02.614Z,55.67
2023-03-20T17:14:30.221Z,56.37
2023-03-20T17:16:58.808Z,56.14
2023-03-20T17:19:28.999Z,57.06
2023-03-20T17:21:56.580Z,56.56
2023-03-20T17:24:23.488Z,57.00
2023-03-20T17:26:55.493Z,56.89
2023-03-20T17:29:22.503Z,57.18
2023-03-20T17:31:49.635Z,56.87
2023-03-20T17:34:20.476Z,57.17
2023-03-20T17:36:48.790Z,56.77
2023-03-20T17:39:19.360Z,56.84
2023-03-20T17:41:47.929Z,57.32
2023-03-20T17:44:15.120Z,57.18
2023-03-20T17:46:56.795Z,57.64
2023-03-20T17:49:26.258Z,57.84
2023-03-20T17:51:53.630Z,57.73
2023-03-20T17:54:20.608Z,57.70
2023-03-20T17:56:47.428Z,57.62
2023-03-20T17:59:14.758Z,57.70
2023-03-20T18:01:42.200Z,57.40
2023-03-20T18:04:09.159Z,57.17
2023-03-20T18:06:37.812Z,57.21
2023-03-20T18:09:05.091Z,57.73
2023-03-20T18:11:32.398Z,57.61
2023-03-20T18:13:59.217Z,57.83
2023-03-20T18:16:27.577Z,57.89
2023-03-20T18:18:55.124Z,57.98
2023-03-20T18:21:22.133Z,57.17
2023-03-20T18:23:50.575Z,57.63
2023-03-20T18:26:21.596Z,57.90
2023-03-20T18:28:50.924Z,57.68
2023-03-20T18:31:18.735Z,57.75
2023-03-20T18:33:47.548Z,58.04
2023-03-20T18:36:16.783Z,58.17
2023-03-20T18:38:44.278Z,57.64
2023-03-20T18:41:12.949Z,58.09
2023-03-20T18:43:42.182Z,58.29
2023-03-20T18:46:14.058Z,58.23
2023-03-20T18:48:40.955Z,58.25
2023-03-20T18:51:08.617Z,58.28
2023-03-20T18:53:39.127Z,58.41
2023-03-20T18:56:14.423Z,58.56
2023-03-20T18:58:42.726Z,59.21
2023-03-20T19:01:09.741Z,58.96
2023-03-20T19:03:40.022Z,59.17
2023-03-20T19:06:13.407Z,59.08
2023-03-20T19:08:40.832Z,59.15
2023-03-20T19:11:07.805Z,58.72
2023-03-20T19:13:35.922Z,59.04
2023-03-20T19:16:12.789Z,59.15
2023-03-20T19:18:40.194Z,59.30
2023-03-20T19:21:07.152Z,59.58
2023-03-20T19:23:34.035Z,59.38
2023-03-20T19:26:00.916Z,59.80
2023-03-20T19:28:39.036Z,59.36
2023-03-20T19:31:09.971Z,60.01
2023-03-20T19:33:37.897Z,60.97
2023-03-20T19:36:06.820Z,60.25
2023-03-20T19:38:34.954Z,60.12
2023-03-20T19:41:02.050Z,60.58
2023-03-20T19:43:29.386Z,60.33
2023-03-20T19:45:59.082Z,61.00
2023-03-20T19:48:46.176Z,61.79
2023-03-20T19:51:19.273Z,61.95
2023-03-20T19:53:46.849Z,61.82
2023-03-20T19:56:15.863Z,62.01
2023-03-20T19:58:43.386Z,62.66
2023-03-20T20:01:16.199Z,62.37
2023-03-20T20:03:44.763Z,63.49
2023-03-20T20:06:12.391Z,63.37
2023-03-20T20:08:47.944Z,63.29
2023-03-20T20:11:16.490Z,63.34
2023-03-20T20:14:09.838Z,63.23
2023-03-20T20:16:30.753Z,63.46
2023-03-20T20:18:59.191Z,63.05
2023-03-20T20:22:13.292Z,62.59
2023-03-20T20:24:13.116Z,62.09
2023-03-20T20:26:49.374Z,61.54
2023-03-20T20:29:18.417Z,61.61
2023-03-20T20:31:45.273Z,61.49
2023-03-20T20:39:48.222Z,59.86
2023-03-20T20:42:15.334Z,61.57
2023-03-20T20:44:42.467Z,62.16
2023-03-20T20:47:09.918Z,61.88
2023-03-20T20:49:38.120Z,61.35
2023-03-20T20:52:05.802Z,61.33
2023-03-20T20:54:32.945Z,62.03
2023-03-20T20:57:00.014Z,61.88
2023-03-20T20:59:27.410Z,62.15
2023-03-20T21:01:54.467Z,61.21
2023-03-20T21:04:21.453Z,61.35
2023-03-20T21:09:36.724Z,60.27
2023-03-20T21:12:04.587Z,58.72
2023-03-20T21:14:31.745Z,62.23
2023-03-20T21:16:59.210Z,63.65
2023-03-20T21:19:26.695Z,64.07
2023-03-20T21:21:55.315Z,63.43
2023-03-20T21:24:32.383Z,64.44
2023-03-20T21:27:00.737Z,64.36
2023-03-20T21:29:27.666Z,64.20
2023-03-20T21:31:54.758Z,64.68
2023-03-20T21:34:21.732Z,66.78
2023-03-20T21:36:49.387Z,68.04
2023-03-20T21:39:19.196Z,68.29
2023-03-20T21:41:46.487Z,68.99
2023-03-20T21:44:18.073Z,70.34
2023-03-20T21:47:19.077Z,70.99
2023-03-20T21:58:44.477Z,70.72
2023-03-20T22:02:05.921Z,69.89
2023-03-20T22:04:06.217Z,70.81
2023-03-20T22:17:59.872Z,68.71
2023-03-20T22:21:06.212Z,68.87
2023-03-20T22:34:46.467Z,67.93
2023-03-20T22:43:28.050Z,64.80
2023-03-20T22:45:28.918Z,65.75
2023-03-20T22:48:01.561Z,66.33
2023-03-20T22:50:29.024Z,65.10
2023-03-20T22:52:56.190Z,65.63
2023-03-20T22:55:24.976Z,69.03
2023-03-20T22:58:05.736Z,70.83
2023-03-20T23:00:35.240Z,70.09
2023-03-20T23:03:29.959Z,70.77
2023-03-20T23:05:50.929Z,70.83
2023-03-20T23:08:18.333Z,68.78
2023-03-20T23:10:48.322Z,71.08
2023-03-20T23:13:17.163Z,72.84
2023-03-20T23:15:48.562Z,73.06
2023-03-20T23:18:15.496Z,73.27
2023-03-20T23:20:42.965Z,72.79
2023-03-20T23:23:10.066Z,73.45
2023-03-20T23:25:39.555Z,72.95
2023-03-20T23:28:07.681Z,72.52
2023-03-20T23:30:44.368Z,72.13
2023-03-20T23:33:15.399Z,73.03
2023-03-20T23:35:42.141Z,72.99
2023-03-20T23:38:09.213Z,74.57
2023-03-20T23:40:36.396Z,73.10
2023-03-20T23:43:03.824Z,72.52
2023-03-20T23:45:30.607Z,72.57
2023-03-20T23:47:57.832Z,72.72
2023-03-20T23:50:36.606Z,72.75
2023-03-20T23:53:19.790Z,72.20
2023-03-20T23:55:50.320Z,73.15
2023-03-20T23:58:18.540Z,73.00
